sensor_id;sensor_type;location;lat;lon;timestamp;noise_LAeq;noise_LA_min;noise_LA_max;noise_LA01;noise_LA95
46393;Laerm;32099;53.588;10.176;2023-03-13T00:00:58;37.14;33.70;49.00;;
46393;Laerm;32099;53.588;10.176;2023-03-13T00:03:24;37.13;33.97;47.24;;
46393;Laerm;32099;53.588;10.176;2023-03-13T00:05:55;36.39;33.97;40.78;;
46393;Laerm;32099;53.588;10.176;2023-03-13T00:08:20;36.35;32.93;43.71;;
46393;Laerm;32099;53.588;10.176;2023-03-13T00:10:46;36.27;33.95;43.43;;
46393;Laerm;32099;53.588;10.176;2023-03-13T00:13:11;36.68;33.91;40.99;;
46393;Laerm;32099;53.588;10.176;2023-03-13T00:15:36;35.93;33.42;43.10;;
46393;Laerm;32099;53.588;10.176;2023-03-13T00:18:02;35.50;33.06;42.36;;
46393;Laerm;32099;53.588;10.176;2023-03-13T00:20:28;36.17;33.18;41.76;;
46393;Laerm;32099;53.588;10.176;2023-03-13T00:22:53;36.79;33.77;43.09;;
46393;Laerm;32099;53.588;10.176;2023-03-13T00:25:18;35.95;33.36;43.50;;
46393;Laerm;32099;53.588;10.176;2023-03-13T00:27:44;36.38;33.52;43.78;;
46393;Laerm;32099;53.588;10.176;2023-03-13T00:30:09;36.67;33.84;45.46;;
46393;Laerm;32099;53.588;10.176;2023-03-13T00:32:43;36.18;33.85;43.42;;
46393;Laerm;32099;53.588;10.176;2023-03-13T00:35:10;35.71;33.52;42.40;;
46393;Laerm;32099;53.588;10.176;2023-03-13T00:37:35;35.84;33.42;40.35;;
46393;Laerm;32099;53.588;10.176;2023-03-13T00:40:01;35.74;33.39;40.91;;
46393;Laerm;32099;53.588;10.176;2023-03-13T00:42:26;36.65;33.11;44.55;;
46393;Laerm;32099;53.588;10.176;2023-03-13T00:44:51;36.92;34.00;42.37;;
46393;Laerm;32099;53.588;10.176;2023-03-13T00:47:17;36.92;33.66;43.56;;
46393;Laerm;32099;53.588;10.176;2023-03-13T00:49:42;36.38;33.25;43.18;;
46393;Laerm;32099;53.588;10.176;2023-03-13T00:52:07;36.69;33.25;41.85;;
46393;Laerm;32099;53.588;10.176;2023-03-13T00:54:33;36.81;33.99;47.41;;
46393;Laerm;32099;53.588;10.176;2023-03-13T00:56:58;36.15;33.14;46.66;;
46393;Laerm;32099;53.588;10.176;2023-03-13T00:59:23;35.68;33.35;44.81;;
46393;Laerm;32099;53.588;10.176;2023-03-13T01:01:48;36.33;33.22;51.50;;
46393;Laerm;32099;53.588;10.176;2023-03-13T01:04:14;46.35;33.61;67.89;;
46393;Laerm;32099;53.588;10.176;2023-03-13T01:06:40;37.32;33.83;47.69;;
46393;Laerm;32099;53.588;10.176;2023-03-13T01:09:08;37.30;34.37;42.86;;
46393;Laerm;32099;53.588;10.176;2023-03-13T01:11:35;38.07;34.31;47.08;;
46393;Laerm;32099;53.588;10.176;2023-03-13T01:14:05;39.21;35.79;52.73;;
46393;Laerm;32099;53.588;10.176;2023-03-13T01:16:33;37.76;34.19;44.05;;
46393;Laerm;32099;53.588;10.176;2023-03-13T01:19:02;37.64;34.21;46.77;;
46393;Laerm;32099;53.588;10.176;2023-03-13T01:21:27;36.68;34.08;41.78;;
46393;Laerm;32099;53.588;10.176;2023-03-13T01:23:53;36.99;34.07;48.03;;
46393;Laerm;32099;53.588;10.176;2023-03-13T01:26:20;37.22;34.15;40.33;;
46393;Laerm;32099;53.588;10.176;2023-03-13T01:28:46;37.80;35.03;41.65;;
46393;Laerm;32099;53.588;10.176;2023-03-13T01:31:13;37.18;34.50;42.25;;
46393;Laerm;32099;53.588;10.176;2023-03-13T01:33:39;37.99;34.55;48.89;;
46393;Laerm;32099;53.588;10.176;2023-03-13T01:36:05;37.36;34.87;41.58;;
46393;Laerm;32099;53.588;10.176;2023-03-13T01:38:31;37.32;34.77;42.44;;
46393;Laerm;32099;53.588;10.176;2023-03-13T01:40:56;37.04;34.24;41.77;;
46393;Laerm;32099;53.588;10.176;2023-03-13T01:43:24;38.17;34.87;46.28;;
46393;Laerm;32099;53.588;10.176;2023-03-13T01:46:02;36.89;34.23;42.38;;
46393;Laerm;32099;53.588;10.176;2023-03-13T01:51:38;37.70;34.56;44.44;;
46393;Laerm;32099;53.588;10.176;2023-03-13T01:54:17;38.73;34.99;46.34;;
46393;Laerm;32099;53.588;10.176;2023-03-13T01:56:48;39.45;35.61;45.77;;
46393;Laerm;32099;53.588;10.176;2023-03-13T01:59:20;39.30;35.17;49.25;;
46393;Laerm;32099;53.588;10.176;2023-03-13T02:01:49;38.62;34.91;42.99;;
46393;Laerm;32099;53.588;10.176;2023-03-13T02:04:19;47.30;36.23;65.92;;
46393;Laerm;32099;53.588;10.176;2023-03-13T02:06:48;38.71;35.38;44.22;;
46393;Laerm;32099;53.588;10.176;2023-03-13T02:09:21;38.94;35.56;44.07;;
46393;Laerm;32099;53.588;10.176;2023-03-13T02:12:02;38.36;35.37;48.45;;
46393;Laerm;32099;53.588;10.176;2023-03-13T02:14:32;38.26;34.91;47.92;;
46393;Laerm;32099;53.588;10.176;2023-03-13T02:16:59;39.39;36.60;47.64;;
46393;Laerm;32099;53.588;10.176;2023-03-13T02:19:42;39.10;35.54;44.06;;
46393;Laerm;32099;53.588;10.176;2023-03-13T02:25:05;38.73;35.34;44.80;;
46393;Laerm;32099;53.588;10.176;2023-03-13T02:27:34;39.37;35.89;46.04;;
46393;Laerm;32099;53.588;10.176;2023-03-13T02:30:00;39.13;36.30;47.48;;
46393;Laerm;32099;53.588;10.176;2023-03-13T02:32:26;38.82;35.99;47.56;;
46393;Laerm;32099;53.588;10.176;2023-03-13T02:34:58;38.12;35.03;43.63;;
46393;Laerm;32099;53.588;10.176;2023-03-13T02:37:28;38.10;35.42;50.76;;
46393;Laerm;32099;53.588;10.176;2023-03-13T02:39:56;39.57;36.21;50.78;;
46393;Laerm;32099;53.588;10.176;2023-03-13T02:42:24;42.17;38.30;50.82;;
46393;Laerm;32099;53.588;10.176;2023-03-13T02:44:49;40.78;38.04;49.89;;
46393;Laerm;32099;53.588;10.176;2023-03-13T02:47:20;42.83;39.23;51.28;;
46393;Laerm;32099;53.588;10.176;2023-03-13T02:49:46;41.28;38.06;54.49;;
46393;Laerm;32099;53.588;10.176;2023-03-13T02:52:15;42.59;38.19;55.62;;
46393;Laerm;32099;53.588;10.176;2023-03-13T02:54:43;44.10;39.98;56.99;;
46393;Laerm;32099;53.588;10.176;2023-03-13T02:57:09;45.63;41.98;57.68;;
46393;Laerm;32099;53.588;10.176;2023-03-13T02:59:35;45.49;41.73;57.62;;
46393;Laerm;32099;53.588;10.176;2023-03-13T03:02:00;46.12;41.75;58.84;;
46393;Laerm;32099;53.588;10.176;2023-03-13T03:04:25;45.16;41.67;56.99;;
46393;Laerm;32099;53.588;10.176;2023-03-13T03:06:51;44.76;41.07;59.82;;
46393;Laerm;32099;53.588;10.176;2023-03-13T03:09:18;44.52;40.85;58.21;;
46393;Laerm;32099;53.588;10.176;2023-03-13T03:11:44;44.65;40.91;56.77;;
46393;Laerm;32099;53.588;10.176;2023-03-13T03:14:10;45.31;41.62;57.53;;
46393;Laerm;32099;53.588;10.176;2023-03-13T03:16:36;44.16;40.28;58.08;;
46393;Laerm;32099;53.588;10.176;2023-03-13T03:19:02;44.54;40.74;60.79;;
46393;Laerm;32099;53.588;10.176;2023-03-13T03:21:27;43.89;39.32;59.53;;
46393;Laerm;32099;53.588;10.176;2023-03-13T03:23:52;42.64;38.85;57.32;;
46393;Laerm;32099;53.588;10.176;2023-03-13T03:26:18;43.16;40.01;57.40;;
46393;Laerm;32099;53.588;10.176;2023-03-13T03:28:43;42.48;38.93;57.38;;
46393;Laerm;32099;53.588;10.176;2023-03-13T03:31:11;42.17;38.95;58.44;;
46393;Laerm;32099;53.588;10.176;2023-03-13T03:33:37;41.88;38.65;57.83;;
46393;Laerm;32099;53.588;10.176;2023-03-13T03:36:05;46.72;39.84;63.72;;
46393;Laerm;32099;53.588;10.176;2023-03-13T03:38:31;43.96;40.39;57.09;;
46393;Laerm;32099;53.588;10.176;2023-03-13T03:40:57;44.04;40.30;58.01;;
46393;Laerm;32099;53.588;10.176;2023-03-13T03:43:23;45.00;41.64;59.78;;
46393;Laerm;32099;53.588;10.176;2023-03-13T03:45:48;45.55;41.20;57.97;;
46393;Laerm;32099;53.588;10.176;2023-03-13T03:48:13;52.48;41.26;67.44;;
46393;Laerm;32099;53.588;10.176;2023-03-13T03:50:38;47.34;42.09;58.09;;
46393;Laerm;32099;53.588;10.176;2023-03-13T03:53:04;46.81;42.07;61.65;;
46393;Laerm;32099;53.588;10.176;2023-03-13T03:55:29;46.11;41.49;58.98;;
46393;Laerm;32099;53.588;10.176;2023-03-13T03:57:54;47.14;43.72;60.69;;
46393;Laerm;32099;53.588;10.176;2023-03-13T04:00:20;47.35;43.62;59.14;;
46393;Laerm;32099;53.588;10.176;2023-03-13T04:02:46;50.16;42.96;70.83;;
46393;Laerm;32099;53.588;10.176;2023-03-13T04:05:11;46.45;43.14;61.27;;
46393;Laerm;32099;53.588;10.176;2023-03-13T04:07:36;47.40;43.76;59.71;;
46393;Laerm;32099;53.588;10.176;2023-03-13T04:10:03;48.79;45.40;57.90;;
46393;Laerm;32099;53.588;10.176;2023-03-13T04:12:28;48.90;45.84;63.10;;
46393;Laerm;32099;53.588;10.176;2023-03-13T04:14:53;48.44;43.85;58.86;;
46393;Laerm;32099;53.588;10.176;2023-03-13T04:17:19;46.84;43.35;61.24;;
46393;Laerm;32099;53.588;10.176;2023-03-13T04:19:44;45.96;41.94;57.88;;
46393;Laerm;32099;53.588;10.176;2023-03-13T04:22:09;50.07;41.84;69.56;;
46393;Laerm;32099;53.588;10.176;2023-03-13T04:24:34;45.75;42.47;57.96;;
46393;Laerm;32099;53.588;10.176;2023-03-13T04:27:00;49.94;43.46;68.37;;
46393;Laerm;32099;53.588;10.176;2023-03-13T04:29:28;49.76;43.50;68.59;;
46393;Laerm;32099;53.588;10.176;2023-03-13T04:31:53;47.44;43.44;56.84;;
46393;Laerm;32099;53.588;10.176;2023-03-13T04:34:19;47.93;44.22;59.63;;
46393;Laerm;32099;53.588;10.176;2023-03-13T04:36:44;49.26;44.46;61.12;;
46393;Laerm;32099;53.588;10.176;2023-03-13T04:39:10;51.39;44.95;67.61;;
46393;Laerm;32099;53.588;10.176;2023-03-13T04:41:36;50.72;45.39;62.89;;
46393;Laerm;32099;53.588;10.176;2023-03-13T04:44:01;49.95;44.97;61.79;;
46393;Laerm;32099;53.588;10.176;2023-03-13T04:46:27;49.24;44.90;63.39;;
46393;Laerm;32099;53.588;10.176;2023-03-13T04:48:52;49.36;45.06;59.87;;
46393;Laerm;32099;53.588;10.176;2023-03-13T04:51:17;53.58;45.78;71.83;;
46393;Laerm;32099;53.588;10.176;2023-03-13T04:53:42;50.78;45.68;60.97;;
46393;Laerm;32099;53.588;10.176;2023-03-13T04:56:08;50.47;45.40;64.07;;
46393;Laerm;32099;53.588;10.176;2023-03-13T04:58:35;52.92;45.31;70.37;;
46393;Laerm;32099;53.588;10.176;2023-03-13T05:01:00;50.51;44.58;63.32;;
46393;Laerm;32099;53.588;10.176;2023-03-13T05:03:25;50.32;45.41;64.37;;
46393;Laerm;32099;53.588;10.176;2023-03-13T05:05:51;49.37;45.50;58.70;;
46393;Laerm;32099;53.588;10.176;2023-03-13T05:08:16;52.63;45.90;69.68;;
46393;Laerm;32099;53.588;10.176;2023-03-13T05:10:42;49.85;45.83;63.17;;
46393;Laerm;32099;53.588;10.176;2023-03-13T05:13:07;50.74;46.73;61.25;;
46393;Laerm;32099;53.588;10.176;2023-03-13T05:15:32;52.88;47.72;68.24;;
46393;Laerm;32099;53.588;10.176;2023-03-13T05:17:58;51.17;47.08;61.95;;
46393;Laerm;32099;53.588;10.176;2023-03-13T05:20:23;51.95;45.77;67.74;;
46393;Laerm;32099;53.588;10.176;2023-03-13T05:22:48;50.45;47.04;63.70;;
46393;Laerm;32099;53.588;10.176;2023-03-13T05:25:14;52.68;46.72;67.05;;
46393;Laerm;32099;53.588;10.176;2023-03-13T05:27:40;53.29;46.72;69.79;;
46393;Laerm;32099;53.588;10.176;2023-03-13T05:30:05;52.08;45.84;66.68;;
46393;Laerm;32099;53.588;10.176;2023-03-13T05:32:31;56.06;45.69;73.56;;
46393;Laerm;32099;53.588;10.176;2023-03-13T05:35:06;52.90;43.97;70.97;;
46393;Laerm;32099;53.588;10.176;2023-03-13T05:37:31;54.10;43.96;73.28;;
46393;Laerm;32099;53.588;10.176;2023-03-13T05:39:56;47.65;43.78;59.88;;
46393;Laerm;32099;53.588;10.176;2023-03-13T05:42:22;47.30;43.37;58.30;;
46393;Laerm;32099;53.588;10.176;2023-03-13T05:44:47;53.41;45.25;69.01;;
46393;Laerm;32099;53.588;10.176;2023-03-13T05:47:12;52.69;46.02;65.93;;
46393;Laerm;32099;53.588;10.176;2023-03-13T05:49:37;54.84;47.69;69.49;;
46393;Laerm;32099;53.588;10.176;2023-03-13T05:52:03;53.33;47.67;69.68;;
46393;Laerm;32099;53.588;10.176;2023-03-13T05:54:28;52.77;46.53;68.50;;
46393;Laerm;32099;53.588;10.176;2023-03-13T05:56:54;54.46;47.17;69.07;;
46393;Laerm;32099;53.588;10.176;2023-03-13T05:59:19;56.53;46.73;71.49;;
46393;Laerm;32099;53.588;10.176;2023-03-13T06:01:44;54.91;46.76;77.52;;
46393;Laerm;32099;53.588;10.176;2023-03-13T06:04:10;51.99;46.15;68.71;;
46393;Laerm;32099;53.588;10.176;2023-03-13T06:06:35;55.47;46.00;72.54;;
46393;Laerm;32099;53.588;10.176;2023-03-13T06:09:00;54.24;45.31;69.84;;
46393;Laerm;32099;53.588;10.176;2023-03-13T06:11:25;54.24;44.75;69.34;;
46393;Laerm;32099;53.588;10.176;2023-03-13T06:13:51;47.80;44.60;57.43;;
46393;Laerm;32099;53.588;10.176;2023-03-13T06:16:17;47.61;43.16;58.44;;
46393;Laerm;32099;53.588;10.176;2023-03-13T06:18:42;47.55;43.88;61.21;;
46393;Laerm;32099;53.588;10.176;2023-03-13T06:21:07;51.70;43.82;68.48;;
46393;Laerm;32099;53.588;10.176;2023-03-13T06:23:33;49.77;43.75;69.20;;
46393;Laerm;32099;53.588;10.176;2023-03-13T06:25:59;47.73;44.07;61.60;;
46393;Laerm;32099;53.588;10.176;2023-03-13T06:28:24;47.38;43.18;63.32;;
46393;Laerm;32099;53.588;10.176;2023-03-13T06:30:50;46.64;43.74;57.78;;
46393;Laerm;32099;53.588;10.176;2023-03-13T06:33:15;52.80;44.35;69.06;;
46393;Laerm;32099;53.588;10.176;2023-03-13T06:35:41;49.33;42.62;66.91;;
46393;Laerm;32099;53.588;10.176;2023-03-13T06:38:08;49.86;43.73;66.12;;
46393;Laerm;32099;53.588;10.176;2023-03-13T06:40:33;52.57;43.86;69.35;;
46393;Laerm;32099;53.588;10.176;2023-03-13T06:42:59;56.11;43.99;70.55;;
46393;Laerm;32099;53.588;10.176;2023-03-13T06:45:24;48.83;43.37;59.37;;
46393;Laerm;32099;53.588;10.176;2023-03-13T06:47:49;52.29;43.53;69.19;;
46393;Laerm;32099;53.588;10.176;2023-03-13T06:50:16;57.08;42.43;83.15;;
46393;Laerm;32099;53.588;10.176;2023-03-13T06:52:42;54.36;42.46;71.53;;
46393;Laerm;32099;53.588;10.176;2023-03-13T06:55:08;49.75;42.13;66.18;;
46393;Laerm;32099;53.588;10.176;2023-03-13T06:57:33;54.80;42.62;71.37;;
46393;Laerm;32099;53.588;10.176;2023-03-13T06:59:58;52.28;42.04;66.74;;
46393;Laerm;32099;53.588;10.176;2023-03-13T07:02:24;55.33;43.07;71.75;;
46393;Laerm;32099;53.588;10.176;2023-03-13T07:04:49;48.42;42.36;67.85;;
46393;Laerm;32099;53.588;10.176;2023-03-13T07:07:14;52.05;41.72;69.93;;
46393;Laerm;32099;53.588;10.176;2023-03-13T07:09:39;52.23;42.67;67.83;;
46393;Laerm;32099;53.588;10.176;2023-03-13T07:12:05;45.58;41.71;58.42;;
46393;Laerm;32099;53.588;10.176;2023-03-13T07:14:30;54.70;42.28;70.39;;
46393;Laerm;32099;53.588;10.176;2023-03-13T07:16:58;52.30;43.34;72.93;;
46393;Laerm;32099;53.588;10.176;2023-03-13T07:19:23;53.98;41.71;69.21;;
46393;Laerm;32099;53.588;10.176;2023-03-13T07:21:48;54.19;42.12;75.18;;
46393;Laerm;32099;53.588;10.176;2023-03-13T07:24:14;52.64;42.16;68.05;;
46393;Laerm;32099;53.588;10.176;2023-03-13T07:26:39;50.80;42.54;69.23;;
46393;Laerm;32099;53.588;10.176;2023-03-13T07:29:04;52.86;42.49;72.49;;
46393;Laerm;32099;53.588;10.176;2023-03-13T07:31:30;52.70;42.56;67.36;;
46393;Laerm;32099;53.588;10.176;2023-03-13T07:33:58;52.04;42.02;66.55;;
46393;Laerm;32099;53.588;10.176;2023-03-13T07:36:23;46.66;42.42;65.20;;
46393;Laerm;32099;53.588;10.176;2023-03-13T07:38:50;50.09;41.82;67.47;;
46393;Laerm;32099;53.588;10.176;2023-03-13T07:41:15;56.10;41.48;69.16;;
46393;Laerm;32099;53.588;10.176;2023-03-13T07:43:41;58.07;42.03;77.00;;
46393;Laerm;32099;53.588;10.176;2023-03-13T07:46:09;51.85;41.34;68.38;;
46393;Laerm;32099;53.588;10.176;2023-03-13T07:48:37;54.81;42.01;69.26;;
46393;Laerm;32099;53.588;10.176;2023-03-13T07:51:04;50.94;41.78;69.19;;
46393;Laerm;32099;53.588;10.176;2023-03-13T07:53:30;53.51;40.96;74.34;;
46393;Laerm;32099;53.588;10.176;2023-03-13T07:55:58;44.54;40.75;57.16;;
46393;Laerm;32099;53.588;10.176;2023-03-13T07:58:27;44.75;40.30;57.49;;
46393;Laerm;32099;53.588;10.176;2023-03-13T08:00:53;44.72;41.13;57.48;;
46393;Laerm;32099;53.588;10.176;2023-03-13T08:03:22;44.79;41.16;58.28;;
46393;Laerm;32099;53.588;10.176;2023-03-13T08:06:03;51.53;40.97;71.89;;
46393;Laerm;32099;53.588;10.176;2023-03-13T08:08:29;48.59;41.72;65.42;;
46393;Laerm;32099;53.588;10.176;2023-03-13T08:11:02;49.80;40.89;67.57;;
46393;Laerm;32099;53.588;10.176;2023-03-13T08:13:32;58.45;41.39;74.27;;
46393;Laerm;32099;53.588;10.176;2023-03-13T08:16:03;56.26;42.13;75.46;;
46393;Laerm;32099;53.588;10.176;2023-03-13T08:18:29;55.55;41.06;72.25;;
46393;Laerm;32099;53.588;10.176;2023-03-13T08:21:00;51.77;41.54;67.23;;
46393;Laerm;32099;53.588;10.176;2023-03-13T08:23:25;50.21;40.83;66.18;;
46393;Laerm;32099;53.588;10.176;2023-03-13T08:25:54;52.40;41.47;69.20;;
46393;Laerm;32099;53.588;10.176;2023-03-13T08:28:19;49.77;40.89;69.35;;
46393;Laerm;32099;53.588;10.176;2023-03-13T08:30:44;50.83;40.97;70.63;;
46393;Laerm;32099;53.588;10.176;2023-03-13T08:33:09;49.11;41.03;66.86;;
46393;Laerm;32099;53.588;10.176;2023-03-13T08:35:35;48.12;41.34;66.61;;
46393;Laerm;32099;53.588;10.176;2023-03-13T08:38:00;48.01;41.45;64.42;;
46393;Laerm;32099;53.588;10.176;2023-03-13T08:40:26;51.85;42.39;66.96;;
46393;Laerm;32099;53.588;10.176;2023-03-13T08:42:52;57.18;41.69;70.91;;
46393;Laerm;32099;53.588;10.176;2023-03-13T08:45:18;46.04;42.22;73.76;;
46393;Laerm;32099;53.588;10.176;2023-03-13T08:47:43;48.86;41.97;68.87;;
46393;Laerm;32099;53.588;10.176;2023-03-13T08:50:09;54.17;41.42;69.11;;
46393;Laerm;32099;53.588;10.176;2023-03-13T08:52:34;55.54;41.30;67.15;;
46393;Laerm;32099;53.588;10.176;2023-03-13T08:54:59;51.02;41.01;71.97;;
46393;Laerm;32099;53.588;10.176;2023-03-13T08:57:25;45.45;40.94;54.76;;
46393;Laerm;32099;53.588;10.176;2023-03-13T08:59:50;46.90;41.60;57.72;;
46393;Laerm;32099;53.588;10.176;2023-03-13T09:02:15;44.77;40.60;54.73;;
46393;Laerm;32099;53.588;10.176;2023-03-13T09:04:44;54.34;41.93;67.86;;
46393;Laerm;32099;53.588;10.176;2023-03-13T09:07:09;46.41;42.42;58.43;;
46393;Laerm;32099;53.588;10.176;2023-03-13T09:09:35;51.66;41.48;67.44;;
46393;Laerm;32099;53.588;10.176;2023-03-13T09:12:00;52.19;42.34;68.90;;
46393;Laerm;32099;53.588;10.176;2023-03-13T09:14:25;46.63;41.39;68.55;;
46393;Laerm;32099;53.588;10.176;2023-03-13T09:16:50;53.20;41.73;68.30;;
46393;Laerm;32099;53.588;10.176;2023-03-13T09:19:16;51.53;42.69;67.12;;
46393;Laerm;32099;53.588;10.176;2023-03-13T09:21:41;45.79;42.45;57.44;;
46393;Laerm;32099;53.588;10.176;2023-03-13T09:24:07;45.81;40.61;59.06;;
46393;Laerm;32099;53.588;10.176;2023-03-13T09:26:32;48.63;41.86;62.70;;
46393;Laerm;32099;53.588;10.176;2023-03-13T09:28:58;49.22;40.97;64.54;;
46393;Laerm;32099;53.588;10.176;2023-03-13T09:31:25;49.44;41.87;67.65;;
46393;Laerm;32099;53.588;10.176;2023-03-13T09:33:52;46.66;40.90;65.63;;
46393;Laerm;32099;53.588;10.176;2023-03-13T09:36:18;51.04;42.11;70.90;;
46393;Laerm;32099;53.588;10.176;2023-03-13T09:38:44;48.25;40.45;69.92;;
46393;Laerm;32099;53.588;10.176;2023-03-13T09:43:54;46.59;41.98;58.16;;
46393;Laerm;32099;53.588;10.176;2023-03-13T09:49:13;51.05;41.88;66.54;;
46393;Laerm;32099;53.588;10.176;2023-03-13T09:51:42;49.35;41.46;67.40;;
46393;Laerm;32099;53.588;10.176;2023-03-13T09:54:24;49.62;40.62;66.12;;
46393;Laerm;32099;53.588;10.176;2023-03-13T09:56:54;48.30;42.80;62.74;;
46393;Laerm;32099;53.588;10.176;2023-03-13T10:01:56;58.47;42.24;76.26;;
46393;Laerm;32099;53.588;10.176;2023-03-13T10:04:29;52.45;41.92;66.95;;
46393;Laerm;32099;53.588;10.176;2023-03-13T10:06:56;50.77;42.03;69.41;;
46393;Laerm;32099;53.588;10.176;2023-03-13T10:09:27;49.68;42.17;64.95;;
46393;Laerm;32099;53.588;10.176;2023-03-13T10:12:21;49.89;41.59;68.38;;
46393;Laerm;32099;53.588;10.176;2023-03-13T10:15:06;47.11;42.09;63.27;;
46393;Laerm;32099;53.588;10.176;2023-03-13T10:17:40;50.96;41.82;67.31;;
46393;Laerm;32099;53.588;10.176;2023-03-13T10:20:24;53.23;42.05;68.98;;
46393;Laerm;32099;53.588;10.176;2023-03-13T10:25:39;54.33;43.01;69.40;;
46393;Laerm;32099;53.588;10.176;2023-03-13T10:28:10;46.75;42.91;59.57;;
46393;Laerm;32099;53.588;10.176;2023-03-13T10:30:36;53.32;42.07;70.51;;
46393;Laerm;32099;53.588;10.176;2023-03-13T10:35:37;48.36;41.90;64.54;;
46393;Laerm;32099;53.588;10.176;2023-03-13T10:38:10;52.02;42.63;68.39;;
46393;Laerm;32099;53.588;10.176;2023-03-13T10:40:36;53.27;43.34;71.29;;
46393;Laerm;32099;53.588;10.176;2023-03-13T10:43:12;51.63;44.38;70.04;;
46393;Laerm;32099;53.588;10.176;2023-03-13T10:45:38;48.94;42.44;62.25;;
46393;Laerm;32099;53.588;10.176;2023-03-13T10:48:12;51.70;42.80;77.44;;
46393;Laerm;32099;53.588;10.176;2023-03-13T10:50:42;47.75;42.47;57.12;;
46393;Laerm;32099;53.588;10.176;2023-03-13T10:55:57;50.08;41.19;64.83;;
46393;Laerm;32099;53.588;10.176;2023-03-13T10:58:39;52.08;41.14;69.57;;
46393;Laerm;32099;53.588;10.176;2023-03-13T11:01:15;45.26;41.30;53.21;;
46393;Laerm;32099;53.588;10.176;2023-03-13T11:03:42;50.07;42.05;66.26;;
46393;Laerm;32099;53.588;10.176;2023-03-13T11:06:31;47.80;41.65;66.29;;
46393;Laerm;32099;53.588;10.176;2023-03-13T11:11:26;50.15;41.81;64.90;;
46393;Laerm;32099;53.588;10.176;2023-03-13T11:14:06;51.63;42.14;65.28;;
46393;Laerm;32099;53.588;10.176;2023-03-13T11:16:34;46.17;41.23;57.47;;
46393;Laerm;32099;53.588;10.176;2023-03-13T11:19:27;66.77;41.74;89.27;;
46393;Laerm;32099;53.588;10.176;2023-03-13T11:22:04;48.79;41.49;65.12;;
46393;Laerm;32099;53.588;10.176;2023-03-13T11:27:35;48.54;43.79;58.33;;
46393;Laerm;32099;53.588;10.176;2023-03-13T11:30:23;56.71;42.75;73.66;;
46393;Laerm;32099;53.588;10.176;2023-03-13T11:32:55;54.62;42.28;71.57;;
46393;Laerm;32099;53.588;10.176;2023-03-13T11:35:35;52.97;41.25;69.72;;
46393;Laerm;32099;53.588;10.176;2023-03-13T11:38:08;49.18;41.11;66.78;;
46393;Laerm;32099;53.588;10.176;2023-03-13T11:44:07;50.79;41.77;67.29;;
46393;Laerm;32099;53.588;10.176;2023-03-13T11:49:38;51.18;41.09;68.58;;
46393;Laerm;32099;53.588;10.176;2023-03-13T11:54:57;47.52;43.04;58.37;;
46393;Laerm;32099;53.588;10.176;2023-03-13T11:57:27;48.65;41.69;62.12;;
46393;Laerm;32099;53.588;10.176;2023-03-13T12:00:20;54.23;42.99;70.52;;
46393;Laerm;32099;53.588;10.176;2023-03-13T12:03:13;55.62;43.10;73.56;;
46393;Laerm;32099;53.588;10.176;2023-03-13T12:05:48;52.81;42.54;71.16;;
46393;Laerm;32099;53.588;10.176;2023-03-13T12:11:11;55.80;44.52;71.74;;
46393;Laerm;32099;53.588;10.176;2023-03-13T12:13:40;47.37;43.23;61.65;;
46393;Laerm;32099;53.588;10.176;2023-03-13T12:16:11;50.54;42.45;66.97;;
46393;Laerm;32099;53.588;10.176;2023-03-13T12:18:41;50.60;45.18;59.03;;
46393;Laerm;32099;53.588;10.176;2023-03-13T12:21:21;55.00;45.83;70.31;;
46393;Laerm;32099;53.588;10.176;2023-03-13T12:24:08;54.32;43.92;72.70;;
46393;Laerm;32099;53.588;10.176;2023-03-13T12:26:53;52.36;43.65;70.72;;
46393;Laerm;32099;53.588;10.176;2023-03-13T12:34:38;53.13;43.05;73.10;;
46393;Laerm;32099;53.588;10.176;2023-03-13T12:37:28;51.63;43.30;67.86;;
46393;Laerm;32099;53.588;10.176;2023-03-13T12:42:59;58.89;46.37;75.85;;
46393;Laerm;32099;53.588;10.176;2023-03-13T12:45:29;56.03;45.70;69.46;;
46393;Laerm;32099;53.588;10.176;2023-03-13T12:48:13;57.70;45.19;75.01;;
46393;Laerm;32099;53.588;10.176;2023-03-13T12:51:08;53.41;44.13;66.98;;
46393;Laerm;32099;53.588;10.176;2023-03-13T12:53:43;55.24;44.97;75.06;;
46393;Laerm;32099;53.588;10.176;2023-03-13T12:56:21;51.90;43.16;72.68;;
46393;Laerm;32099;53.588;10.176;2023-03-13T12:58:56;54.42;44.47;68.24;;
46393;Laerm;32099;53.588;10.176;2023-03-13T13:01:26;52.11;46.29;64.07;;
46393;Laerm;32099;53.588;10.176;2023-03-13T13:04:00;54.61;43.65;71.40;;
46393;Laerm;32099;53.588;10.176;2023-03-13T13:07:00;50.77;44.58;68.80;;
46393;Laerm;32099;53.588;10.176;2023-03-13T13:09:32;58.37;47.69;73.82;;
46393;Laerm;32099;53.588;10.176;2023-03-13T13:12:18;58.39;48.04;71.75;;
46393;Laerm;32099;53.588;10.176;2023-03-13T13:17:25;54.74;47.63;68.70;;
46393;Laerm;32099;53.588;10.176;2023-03-13T13:19:51;52.45;44.07;70.57;;
46393;Laerm;32099;53.588;10.176;2023-03-13T13:25:25;55.60;43.69;69.35;;
46393;Laerm;32099;53.588;10.176;2023-03-13T13:27:51;53.55;43.63;69.91;;
46393;Laerm;32099;53.588;10.176;2023-03-13T13:32:52;50.45;42.34;62.39;;
46393;Laerm;32099;53.588;10.176;2023-03-13T13:41:03;53.70;42.79;70.99;;
46393;Laerm;32099;53.588;10.176;2023-03-13T13:46:27;50.12;41.89;65.53;;
46393;Laerm;32099;53.588;10.176;2023-03-13T13:49:12;48.52;40.91;64.32;;
46393;Laerm;32099;53.588;10.176;2023-03-13T13:57:15;51.66;43.53;69.63;;
46393;Laerm;32099;53.588;10.176;2023-03-13T13:59:50;54.47;44.97;66.38;;
46393;Laerm;32099;53.588;10.176;2023-03-13T14:02:19;44.83;39.91;58.06;;
46393;Laerm;32099;53.588;10.176;2023-03-13T14:04:51;50.92;41.70;69.17;;
46393;Laerm;32099;53.588;10.176;2023-03-13T14:07:24;52.76;41.28;69.83;;
46393;Laerm;32099;53.588;10.176;2023-03-13T14:10:18;50.75;42.18;73.20;;
46393;Laerm;32099;53.588;10.176;2023-03-13T14:12:50;50.99;43.19;74.77;;
46393;Laerm;32099;53.588;10.176;2023-03-13T14:15:22;54.48;41.90;70.62;;
46393;Laerm;32099;53.588;10.176;2023-03-13T14:18:21;52.68;42.94;63.05;;
46393;Laerm;32099;53.588;10.176;2023-03-13T14:20:53;53.51;43.17;70.25;;
46393;Laerm;32099;53.588;10.176;2023-03-13T14:23:31;51.60;42.02;69.75;;
46393;Laerm;32099;53.588;10.176;2023-03-13T14:25:56;54.49;44.33;70.27;;
46393;Laerm;32099;53.588;10.176;2023-03-13T14:28:27;49.87;41.86;66.18;;
46393;Laerm;32099;53.588;10.176;2023-03-13T14:30:55;52.42;41.03;71.28;;
46393;Laerm;32099;53.588;10.176;2023-03-13T14:33:22;54.79;41.89;72.41;;
46393;Laerm;32099;53.588;10.176;2023-03-13T14:35:48;54.03;42.40;59.08;;
46393;Laerm;32099;53.588;10.176;2023-03-13T14:38:24;51.86;40.79;67.57;;
46393;Laerm;32099;53.588;10.176;2023-03-13T14:40:52;46.66;41.69;59.43;;
46393;Laerm;32099;53.588;10.176;2023-03-13T14:43:27;46.40;41.94;51.56;;
46393;Laerm;32099;53.588;10.176;2023-03-13T14:45:54;49.98;41.06;65.16;;
46393;Laerm;32099;53.588;10.176;2023-03-13T14:48:32;50.43;41.57;64.07;;
46393;Laerm;32099;53.588;10.176;2023-03-13T14:51:16;53.89;43.69;68.81;;